KRBG/RBG METAR and TAF weather

Enter ICAO airport designator
Station Type Date Time Source
KRBG METAR 2021/07/29 00:53 UTC NOAA

KRBG 290053Z AUTO 30007KT 10SM CLR 35/05 A2997 RMK AO2 SLP143 T03500050


Station Type Date Time Source
KRBG Decoded METAR 2021/07/29 00:53 UTC NOAA

ROSEBURG REGIONAL AIRPORT, OR, United States (KRBG) 43-14N 123-21W 154M
Jul 28, 2021 - 08:53 PM EDT / 2021.07.29 0053 UTC
Wind: from the WNW (300 degrees) at 8 MPH (7 KT):0
Visibility: 10 mile(s):0
Sky conditions: clear
Temperature: 95.0 F (35.0 C)
Dew Point: 41.0 F (5.0 C)
Relative Humidity: 15%
Pressure (altimeter): 29.97 in. Hg (1014 hPa)
ob: KRBG 290053Z AUTO 30007KT 10SM CLR 35/05 A2997 RMK AO2 SLP143 T03500050
cycle: 1

Station Type Date Time Source
KRBG TAF 2021/07/28 18:40 UTC NOAA

TAF KRBG 281738Z 2818/2918 36003KT P6SM FEW150
FM282100 35009KT P6SM SCT150
FM290200 VRB03KT P6SM FEW150

Example: see airport list